ULK2400 EDNY-LEPA
Flight info
| Callsign | ULK2400 |
|---|---|
| Flight time | 1h 31m |
| Altitude | 35000 |
| Route | TRA1E TRA N850 RIPUS L613 DITON DCT LUTIX DCT BENOT DCT NEMOS DCT GEVEA DCT INCUS DCT BALSI DCT RETNO DCT TUPOX DCT MTG DCT DIVKO DCT VATIR N852 PIVUS DCT BODEQ N852 VERSO DCT LUNIK |
| Aircraft | A319/M-SDE2E3FGIJ1LORWXYZ/HB1 |
Departure
| Time | 2026-04-26 09:48 |
|---|---|
| Airport | Bodensee Airport Friedrichshafen (EDNY) |
Arrival
| Time | 2026-04-26 11:19 |
|---|---|
| Airport | Palma de Mallorca Airport (LEPA) |
| Time | Latitude | Longitude | Altitude | Speed | Heading |
|---|---|---|---|---|---|
| 2026-04-26 09:32 | 47.67359 | 9.52379 | 1369 ft | 0 kts | 198° |
| 2026-04-26 09:43 | 47.67359 | 9.52378 | 1368 ft | 0 kts | 205° |
| 2026-04-26 09:43 | 47.67363 | 9.52363 | 1368 ft | 2 kts | 308° |
| 2026-04-26 09:43 | 47.67386 | 9.52285 | 1367 ft | 15 kts | 255° |
| 2026-04-26 09:44 | 47.67335 | 9.52150 | 1367 ft | 15 kts | 240° |
| 2026-04-26 09:44 | 47.67284 | 9.52017 | 1367 ft | 15 kts | 240° |
| 2026-04-26 09:44 | 47.67232 | 9.51883 | 1365 ft | 15 kts | 240° |
| 2026-04-26 09:44 | 47.67174 | 9.51730 | 1363 ft | 20 kts | 240° |
| 2026-04-26 09:45 | 47.67105 | 9.51550 | 1363 ft | 20 kts | 240° |
| 2026-04-26 09:45 | 47.67028 | 9.51355 | 1360 ft | 24 kts | 239° |
| 2026-04-26 09:45 | 47.66940 | 9.51130 | 1354 ft | 26 kts | 240° |
| 2026-04-26 09:45 | 47.66848 | 9.50891 | 1350 ft | 27 kts | 240° |
| 2026-04-26 09:46 | 47.66712 | 9.50705 | 1350 ft | 26 kts | 211° |
| 2026-04-26 09:46 | 47.66605 | 9.50483 | 1348 ft | 27 kts | 240° |
| 2026-04-26 09:46 | 47.66510 | 9.50240 | 1346 ft | 28 kts | 240° |
| 2026-04-26 09:46 | 47.66499 | 9.49989 | 1342 ft | 25 kts | 298° |
| 2026-04-26 09:47 | 47.66582 | 9.49820 | 1343 ft | 18 kts | 326° |
| 2026-04-26 09:47 | 47.66647 | 9.49900 | 1344 ft | 24 kts | 60° |
| 2026-04-26 09:47 | 47.66860 | 9.50447 | 1353 ft | 96 kts | 60° |
| 2026-04-26 09:47 | 47.67292 | 9.51555 | 1388 ft | 147 kts | 58° |
| 2026-04-26 09:48 | 47.67790 | 9.52853 | 2028 ft | 143 kts | 58° |
| 2026-04-26 09:48 | 47.68285 | 9.54134 | 2693 ft | 144 kts | 59° |
| 2026-04-26 09:48 | 47.68787 | 9.55426 | 3248 ft | 149 kts | 59° |
| 2026-04-26 09:48 | 47.69347 | 9.56865 | 3686 ft | 172 kts | 60° |
| 2026-04-26 09:49 | 47.69982 | 9.58493 | 4016 ft | 194 kts | 59° |
| 2026-04-26 09:49 | 47.71036 | 9.59830 | 4416 ft | 212 kts | 19° |
| 2026-04-26 09:49 | 47.72523 | 9.59704 | 5014 ft | 225 kts | 337° |
| 2026-04-26 09:49 | 47.73723 | 9.58212 | 5700 ft | 228 kts | 312° |
| 2026-04-26 09:50 | 47.74570 | 9.56147 | 6153 ft | 244 kts | 285° |
| 2026-04-26 09:50 | 47.74617 | 9.53652 | 6944 ft | 245 kts | 255° |
| 2026-04-26 09:50 | 47.73857 | 9.51393 | 7716 ft | 247 kts | 234° |
| 2026-04-26 09:50 | 47.72939 | 9.49229 | 8491 ft | 250 kts | 241° |
| 2026-04-26 09:51 | 47.72117 | 9.46932 | 9275 ft | 254 kts | 244° |
| 2026-04-26 09:51 | 47.71316 | 9.44563 | 10041 ft | 259 kts | 244° |
| 2026-04-26 09:51 | 47.70482 | 9.42099 | 10381 ft | 282 kts | 244° |
| 2026-04-26 09:51 | 47.69552 | 9.39400 | 10642 ft | 306 kts | 244° |
| 2026-04-26 09:52 | 47.68531 | 9.36503 | 10934 ft | 326 kts | 243° |
| 2026-04-26 09:52 | 47.66349 | 9.30474 | 12348 ft | 335 kts | 243° |
| 2026-04-26 09:52 | 47.65234 | 9.27430 | 13125 ft | 337 kts | 243° |
| 2026-04-26 09:53 | 47.64108 | 9.24362 | 13905 ft | 339 kts | 243° |
| 2026-04-26 09:53 | 47.62974 | 9.21277 | 14590 ft | 342 kts | 242° |
| 2026-04-26 09:53 | 47.61826 | 9.18158 | 15227 ft | 345 kts | 243° |
| 2026-04-26 09:53 | 47.60671 | 9.15019 | 15893 ft | 348 kts | 243° |
| 2026-04-26 09:54 | 47.59525 | 9.11899 | 16548 ft | 351 kts | 242° |
| 2026-04-26 09:54 | 47.58350 | 9.08700 | 17161 ft | 355 kts | 243° |
| 2026-04-26 09:54 | 47.57140 | 9.05403 | 17312 ft | 373 kts | 243° |
| 2026-04-26 09:54 | 47.55929 | 9.01903 | 17481 ft | 387 kts | 250° |
| 2026-04-26 09:55 | 47.55044 | 8.98104 | 17945 ft | 393 kts | 252° |
| 2026-04-26 09:55 | 47.54460 | 8.95558 | 18301 ft | 396 kts | 253° |
| 2026-04-26 09:55 | 47.53551 | 8.91632 | 18806 ft | 400 kts | 252° |
| 2026-04-26 09:55 | 47.52654 | 8.87773 | 19338 ft | 402 kts | 252° |
| 2026-04-26 09:56 | 47.51739 | 8.83848 | 19892 ft | 404 kts | 252° |
| 2026-04-26 09:56 | 47.50820 | 8.79906 | 20395 ft | 406 kts | 252° |
| 2026-04-26 09:56 | 47.49898 | 8.75955 | 20884 ft | 409 kts | 251° |
| 2026-04-26 09:56 | 47.48967 | 8.71975 | 21404 ft | 410 kts | 251° |
| 2026-04-26 09:57 | 47.48031 | 8.67983 | 21876 ft | 412 kts | 251° |
| 2026-04-26 09:57 | 47.46934 | 8.64054 | 22305 ft | 415 kts | 247° |
| 2026-04-26 09:57 | 47.45751 | 8.60136 | 22746 ft | 418 kts | 246° |
| 2026-04-26 09:57 | 47.44528 | 8.56229 | 23197 ft | 420 kts | 245° |
| 2026-04-26 09:58 | 47.43282 | 8.52315 | 23654 ft | 421 kts | 245° |
| 2026-04-26 09:58 | 47.42044 | 8.48428 | 24353 ft | 414 kts | 245° |
| 2026-04-26 09:58 | 47.40833 | 8.44608 | 25058 ft | 407 kts | 245° |
| 2026-04-26 09:58 | 47.39662 | 8.40892 | 25738 ft | 400 kts | 245° |
| 2026-04-26 09:59 | 47.38493 | 8.37161 | 26212 ft | 401 kts | 245° |
| 2026-04-26 09:59 | 47.37322 | 8.33413 | 26587 ft | 404 kts | 245° |
| 2026-04-26 09:59 | 47.36137 | 8.29631 | 26968 ft | 406 kts | 245° |
| 2026-04-26 09:59 | 47.34947 | 8.25843 | 27359 ft | 409 kts | 245° |
| 2026-04-26 10:00 | 47.33748 | 8.22042 | 27742 ft | 410 kts | 245° |
| 2026-04-26 10:00 | 47.32536 | 8.18212 | 28143 ft | 412 kts | 245° |
| 2026-04-26 10:00 | 47.31321 | 8.14376 | 28551 ft | 413 kts | 245° |
| 2026-04-26 10:00 | 47.30101 | 8.10531 | 28949 ft | 415 kts | 245° |
| 2026-04-26 10:01 | 47.28878 | 8.06680 | 29361 ft | 416 kts | 245° |
| 2026-04-26 10:01 | 47.27651 | 8.02815 | 29784 ft | 416 kts | 245° |
| 2026-04-26 10:01 | 47.26422 | 7.98955 | 30209 ft | 417 kts | 245° |
| 2026-04-26 10:01 | 47.25192 | 7.95100 | 30576 ft | 417 kts | 245° |
| 2026-04-26 10:02 | 47.23959 | 7.91231 | 30946 ft | 417 kts | 245° |
| 2026-04-26 10:02 | 47.22732 | 7.87374 | 31321 ft | 416 kts | 245° |
| 2026-04-26 10:02 | 47.21502 | 7.83522 | 31701 ft | 416 kts | 245° |
| 2026-04-26 10:02 | 47.20269 | 7.79670 | 32081 ft | 415 kts | 245° |
| 2026-04-26 10:03 | 47.19053 | 7.75881 | 32467 ft | 415 kts | 245° |
| 2026-04-26 10:03 | 47.17822 | 7.72060 | 32868 ft | 414 kts | 245° |
| 2026-04-26 10:03 | 47.16590 | 7.68244 | 33268 ft | 413 kts | 245° |
| 2026-04-26 10:03 | 47.15361 | 7.64433 | 33678 ft | 412 kts | 245° |
| 2026-04-26 10:04 | 47.14135 | 7.60634 | 34096 ft | 410 kts | 245° |
| 2026-04-26 10:04 | 47.12911 | 7.56850 | 34444 ft | 410 kts | 245° |
| 2026-04-26 10:04 | 47.11682 | 7.53061 | 34692 ft | 411 kts | 245° |
| 2026-04-26 10:04 | 47.10447 | 7.49266 | 34956 ft | 412 kts | 245° |
| 2026-04-26 10:05 | 47.09212 | 7.45472 | 35250 ft | 412 kts | 245° |
| 2026-04-26 10:05 | 47.07975 | 7.41670 | 35532 ft | 412 kts | 245° |
| 2026-04-26 10:05 | 47.06739 | 7.37874 | 35776 ft | 413 kts | 245° |
| 2026-04-26 10:05 | 47.05509 | 7.34107 | 36022 ft | 414 kts | 245° |
| 2026-04-26 10:06 | 47.04265 | 7.30304 | 36267 ft | 414 kts | 245° |
| 2026-04-26 10:06 | 47.03018 | 7.26494 | 36513 ft | 414 kts | 245° |
| 2026-04-26 10:06 | 47.01771 | 7.22683 | 36759 ft | 415 kts | 245° |
| 2026-04-26 10:06 | 47.00525 | 7.18882 | 36990 ft | 415 kts | 245° |
| 2026-04-26 10:07 | 46.99267 | 7.15064 | 37156 ft | 417 kts | 245° |
| 2026-04-26 10:07 | 46.98001 | 7.11230 | 37199 ft | 421 kts | 245° |
| 2026-04-26 10:07 | 46.95430 | 7.03441 | 37189 ft | 426 kts | 245° |
| 2026-04-26 10:08 | 46.92842 | 6.95631 | 37194 ft | 427 kts | 244° |
| 2026-04-26 10:08 | 46.89357 | 6.88600 | 37194 ft | 431 kts | 225° |
| 2026-04-26 10:09 | 46.84778 | 6.83000 | 37192 ft | 432 kts | 221° |
| 2026-04-26 10:09 | 46.80111 | 6.77439 | 37191 ft | 432 kts | 221° |
| 2026-04-26 10:10 | 46.75441 | 6.71891 | 37181 ft | 432 kts | 220° |
| 2026-04-26 10:10 | 46.70781 | 6.66361 | 37187 ft | 432 kts | 221° |
| 2026-04-26 10:11 | 46.66115 | 6.60847 | 37187 ft | 431 kts | 220° |
| 2026-04-26 10:11 | 46.61478 | 6.55391 | 37188 ft | 431 kts | 220° |
| 2026-04-26 10:12 | 46.56815 | 6.49904 | 37185 ft | 431 kts | 220° |
| 2026-04-26 10:12 | 46.52154 | 6.44422 | 37176 ft | 431 kts | 220° |
| 2026-04-26 10:13 | 46.47482 | 6.38935 | 37171 ft | 432 kts | 220° |
| 2026-04-26 10:13 | 46.42795 | 6.33464 | 37171 ft | 432 kts | 220° |
| 2026-04-26 10:14 | 46.38103 | 6.27996 | 37168 ft | 433 kts | 220° |
| 2026-04-26 10:14 | 46.33416 | 6.22531 | 37175 ft | 433 kts | 220° |
| 2026-04-26 10:15 | 46.28708 | 6.17086 | 37183 ft | 433 kts | 218° |
| 2026-04-26 10:15 | 46.23388 | 6.13101 | 37181 ft | 438 kts | 199° |
| 2026-04-26 10:16 | 46.17365 | 6.11424 | 37173 ft | 441 kts | 191° |
| 2026-04-26 10:16 | 46.11315 | 6.10087 | 37175 ft | 441 kts | 191° |
| 2026-04-26 10:17 | 46.05234 | 6.08736 | 37156 ft | 441 kts | 191° |
| 2026-04-26 10:17 | 45.99199 | 6.07397 | 37145 ft | 441 kts | 191° |
| 2026-04-26 10:18 | 45.93086 | 6.06050 | 37148 ft | 441 kts | 191° |
| 2026-04-26 10:18 | 45.87051 | 6.04720 | 37153 ft | 442 kts | 191° |
| 2026-04-26 10:19 | 45.80969 | 6.03386 | 37147 ft | 442 kts | 191° |
| 2026-04-26 10:19 | 45.74887 | 6.02041 | 37154 ft | 442 kts | 191° |
| 2026-04-26 10:20 | 45.69837 | 6.00924 | 37158 ft | 442 kts | 191° |
| 2026-04-26 10:20 | 45.62924 | 5.98337 | 37158 ft | 439 kts | 199° |
| 2026-04-26 10:21 | 45.57034 | 5.95869 | 37164 ft | 445 kts | 199° |
| 2026-04-26 10:21 | 45.51050 | 5.93366 | 37154 ft | 449 kts | 199° |
| 2026-04-26 10:22 | 45.45036 | 5.90875 | 37167 ft | 450 kts | 198° |
| 2026-04-26 10:22 | 45.39010 | 5.88393 | 37167 ft | 451 kts | 198° |
| 2026-04-26 10:23 | 45.32979 | 5.85914 | 37161 ft | 451 kts | 198° |
| 2026-04-26 10:23 | 45.26989 | 5.83454 | 37160 ft | 451 kts | 198° |
| 2026-04-26 10:24 | 45.20960 | 5.80980 | 37149 ft | 451 kts | 198° |
| 2026-04-26 10:24 | 45.14925 | 5.78511 | 37153 ft | 451 kts | 199° |
| 2026-04-26 10:25 | 45.08885 | 5.76043 | 37159 ft | 451 kts | 198° |
| 2026-04-26 10:25 | 45.02847 | 5.73585 | 37151 ft | 452 kts | 198° |
| 2026-04-26 10:26 | 44.96802 | 5.71126 | 37152 ft | 452 kts | 198° |
| 2026-04-26 10:26 | 44.90761 | 5.68682 | 37152 ft | 452 kts | 198° |
| 2026-04-26 10:27 | 44.84697 | 5.66238 | 37142 ft | 452 kts | 198° |
| 2026-04-26 10:27 | 44.78647 | 5.63796 | 37145 ft | 452 kts | 198° |
| 2026-04-26 10:28 | 44.72600 | 5.61349 | 37147 ft | 452 kts | 198° |
| 2026-04-26 10:28 | 44.66547 | 5.58921 | 37146 ft | 452 kts | 198° |
| 2026-04-26 10:29 | 44.60533 | 5.56507 | 37132 ft | 452 kts | 198° |
| 2026-04-26 10:29 | 44.54485 | 5.54081 | 37133 ft | 452 kts | 198° |
| 2026-04-26 10:30 | 44.48434 | 5.51662 | 37132 ft | 452 kts | 198° |
| 2026-04-26 10:30 | 44.42388 | 5.49252 | 37120 ft | 451 kts | 198° |
| 2026-04-26 10:31 | 44.36343 | 5.46852 | 37124 ft | 452 kts | 198° |
| 2026-04-26 10:31 | 44.30296 | 5.44450 | 37123 ft | 452 kts | 198° |
| 2026-04-26 10:32 | 44.24285 | 5.42067 | 37109 ft | 452 kts | 198° |
| 2026-04-26 10:32 | 44.18225 | 5.39669 | 37112 ft | 452 kts | 198° |
| 2026-04-26 10:33 | 44.12171 | 5.37273 | 37118 ft | 452 kts | 198° |
| 2026-04-26 10:33 | 44.06102 | 5.34893 | 37108 ft | 453 kts | 198° |
| 2026-04-26 10:34 | 44.00029 | 5.32520 | 37111 ft | 453 kts | 198° |
| 2026-04-26 10:34 | 43.93953 | 5.30137 | 37117 ft | 454 kts | 198° |
| 2026-04-26 10:35 | 43.87919 | 5.27769 | 37114 ft | 454 kts | 198° |
| 2026-04-26 10:35 | 43.81839 | 5.25391 | 37122 ft | 454 kts | 198° |
| 2026-04-26 10:36 | 43.75745 | 5.23019 | 37131 ft | 454 kts | 198° |
| 2026-04-26 10:36 | 43.69654 | 5.20655 | 37130 ft | 454 kts | 198° |
| 2026-04-26 10:37 | 43.63567 | 5.18293 | 37131 ft | 454 kts | 198° |
| 2026-04-26 10:37 | 43.57474 | 5.15941 | 37140 ft | 454 kts | 198° |
| 2026-04-26 10:38 | 43.51382 | 5.13592 | 37131 ft | 454 kts | 198° |
| 2026-04-26 10:38 | 43.45294 | 5.11244 | 37129 ft | 454 kts | 198° |
| 2026-04-26 10:39 | 43.39302 | 5.08699 | 37132 ft | 451 kts | 206° |
| 2026-04-26 10:39 | 43.33962 | 5.04293 | 37135 ft | 448 kts | 217° |
| 2026-04-26 10:40 | 43.28826 | 4.99437 | 37131 ft | 448 kts | 216° |
| 2026-04-26 10:40 | 43.23680 | 4.94595 | 37133 ft | 449 kts | 216° |
| 2026-04-26 10:41 | 43.18526 | 4.89764 | 37140 ft | 449 kts | 216° |
| 2026-04-26 10:41 | 43.13367 | 4.84936 | 37147 ft | 449 kts | 216° |
| 2026-04-26 10:42 | 43.09084 | 4.80928 | 37137 ft | 449 kts | 216° |
| 2026-04-26 10:42 | 43.02892 | 4.75618 | 37139 ft | 451 kts | 211° |
| 2026-04-26 10:43 | 42.97408 | 4.71469 | 37155 ft | 451 kts | 211° |
| 2026-04-26 10:43 | 42.91960 | 4.67333 | 37151 ft | 451 kts | 211° |
| 2026-04-26 10:44 | 42.86475 | 4.63175 | 37151 ft | 451 kts | 211° |
| 2026-04-26 10:44 | 42.81907 | 4.59728 | 37153 ft | 451 kts | 211° |
| 2026-04-26 10:45 | 42.76406 | 4.55588 | 37152 ft | 451 kts | 211° |
| 2026-04-26 10:45 | 42.70909 | 4.51459 | 37154 ft | 452 kts | 211° |
| 2026-04-26 10:46 | 42.65401 | 4.47330 | 37158 ft | 452 kts | 211° |
| 2026-04-26 10:46 | 42.59896 | 4.43207 | 37158 ft | 452 kts | 211° |
| 2026-04-26 10:47 | 42.54390 | 4.39090 | 37160 ft | 452 kts | 211° |
| 2026-04-26 10:47 | 42.48876 | 4.34983 | 37148 ft | 452 kts | 211° |
| 2026-04-26 10:48 | 42.43392 | 4.30915 | 37157 ft | 452 kts | 210° |
| 2026-04-26 10:48 | 42.37862 | 4.26816 | 37160 ft | 452 kts | 211° |
| 2026-04-26 10:49 | 42.32345 | 4.22719 | 37158 ft | 452 kts | 210° |
| 2026-04-26 10:49 | 42.26825 | 4.18625 | 37158 ft | 453 kts | 210° |
| 2026-04-26 10:50 | 42.21289 | 4.14549 | 37159 ft | 453 kts | 210° |
| 2026-04-26 10:50 | 42.15787 | 4.10512 | 37167 ft | 453 kts | 210° |
| 2026-04-26 10:51 | 42.07485 | 4.04393 | 37168 ft | 453 kts | 210° |
| 2026-04-26 10:52 | 42.01946 | 4.00347 | 37173 ft | 453 kts | 210° |
| 2026-04-26 10:52 | 41.96406 | 3.96304 | 37179 ft | 453 kts | 210° |
| 2026-04-26 10:53 | 41.90609 | 3.93006 | 37167 ft | 455 kts | 194° |
| 2026-04-26 10:53 | 41.84367 | 3.91497 | 37175 ft | 455 kts | 191° |
| 2026-04-26 10:54 | 41.75041 | 3.89345 | 37185 ft | 455 kts | 192° |
| 2026-04-26 10:54 | 41.68938 | 3.87151 | 37180 ft | 454 kts | 197° |
| 2026-04-26 10:55 | 41.62880 | 3.84772 | 37183 ft | 453 kts | 198° |
| 2026-04-26 10:55 | 41.56826 | 3.82380 | 37187 ft | 453 kts | 197° |
| 2026-04-26 10:56 | 41.50773 | 3.80019 | 37190 ft | 453 kts | 197° |
| 2026-04-26 10:56 | 41.44717 | 3.77673 | 37185 ft | 453 kts | 197° |
| 2026-04-26 10:57 | 41.38661 | 3.75335 | 36769 ft | 452 kts | 197° |
| 2026-04-26 10:57 | 41.35676 | 3.74185 | 36517 ft | 453 kts | 197° |
| 2026-04-26 10:57 | 41.32649 | 3.73015 | 36254 ft | 453 kts | 197° |
| 2026-04-26 10:58 | 41.29618 | 3.71844 | 35997 ft | 454 kts | 197° |
| 2026-04-26 10:58 | 41.26586 | 3.70672 | 35589 ft | 452 kts | 197° |
| 2026-04-26 10:58 | 41.23574 | 3.69509 | 35062 ft | 451 kts | 197° |
| 2026-04-26 10:58 | 41.20554 | 3.68346 | 34536 ft | 451 kts | 196° |
| 2026-04-26 10:59 | 41.17531 | 3.67182 | 33983 ft | 452 kts | 196° |
| 2026-04-26 10:59 | 41.14502 | 3.66017 | 33437 ft | 453 kts | 196° |
| 2026-04-26 10:59 | 41.11473 | 3.64854 | 32914 ft | 455 kts | 196° |
| 2026-04-26 10:59 | 41.08414 | 3.63683 | 32382 ft | 457 kts | 196° |
| 2026-04-26 11:00 | 41.05361 | 3.62519 | 31854 ft | 455 kts | 196° |
| 2026-04-26 11:00 | 41.02324 | 3.61364 | 31337 ft | 453 kts | 196° |
| 2026-04-26 11:00 | 40.99305 | 3.60213 | 30823 ft | 450 kts | 196° |
| 2026-04-26 11:00 | 40.96347 | 3.59082 | 30329 ft | 447 kts | 196° |
| 2026-04-26 11:01 | 40.93363 | 3.57942 | 29786 ft | 444 kts | 196° |
| 2026-04-26 11:01 | 40.90406 | 3.56812 | 29308 ft | 442 kts | 196° |
| 2026-04-26 11:01 | 40.87462 | 3.55690 | 28834 ft | 439 kts | 196° |
| 2026-04-26 11:01 | 40.84529 | 3.54578 | 28357 ft | 437 kts | 195° |
| 2026-04-26 11:02 | 40.81604 | 3.53473 | 27892 ft | 436 kts | 196° |
| 2026-04-26 11:02 | 40.78696 | 3.52374 | 27430 ft | 434 kts | 195° |
| 2026-04-26 11:02 | 40.75799 | 3.51277 | 26945 ft | 431 kts | 196° |
| 2026-04-26 11:02 | 40.72927 | 3.50186 | 26464 ft | 429 kts | 196° |
| 2026-04-26 11:03 | 40.70069 | 3.49099 | 25974 ft | 426 kts | 196° |
| 2026-04-26 11:03 | 40.67232 | 3.48023 | 25493 ft | 423 kts | 196° |
| 2026-04-26 11:03 | 40.64413 | 3.46958 | 24982 ft | 421 kts | 196° |
| 2026-04-26 11:03 | 40.61607 | 3.45901 | 24477 ft | 418 kts | 195° |
| 2026-04-26 11:04 | 40.58818 | 3.44855 | 23969 ft | 415 kts | 195° |
| 2026-04-26 11:04 | 40.56016 | 3.43980 | 23399 ft | 413 kts | 192° |
| 2026-04-26 11:04 | 40.53218 | 3.43153 | 22755 ft | 411 kts | 192° |
| 2026-04-26 11:04 | 40.50423 | 3.42330 | 22121 ft | 410 kts | 192° |
| 2026-04-26 11:05 | 40.47647 | 3.41515 | 21503 ft | 408 kts | 192° |
| 2026-04-26 11:05 | 40.44873 | 3.40698 | 20894 ft | 407 kts | 192° |
| 2026-04-26 11:05 | 40.42149 | 3.39893 | 20316 ft | 406 kts | 192° |
| 2026-04-26 11:05 | 40.39400 | 3.39069 | 19733 ft | 405 kts | 192° |
| 2026-04-26 11:06 | 40.36655 | 3.38242 | 19175 ft | 404 kts | 192° |
| 2026-04-26 11:06 | 40.33926 | 3.37419 | 18708 ft | 401 kts | 192° |
| 2026-04-26 11:06 | 40.31215 | 3.36599 | 18215 ft | 398 kts | 192° |
| 2026-04-26 11:06 | 40.28529 | 3.35785 | 17686 ft | 394 kts | 192° |
| 2026-04-26 11:07 | 40.25865 | 3.34975 | 17166 ft | 391 kts | 192° |
| 2026-04-26 11:07 | 40.23225 | 3.34168 | 16659 ft | 388 kts | 192° |
| 2026-04-26 11:07 | 40.20603 | 3.33365 | 16160 ft | 385 kts | 192° |
| 2026-04-26 11:07 | 40.18012 | 3.32560 | 15664 ft | 381 kts | 192° |
| 2026-04-26 11:08 | 40.15440 | 3.31753 | 15179 ft | 378 kts | 192° |
| 2026-04-26 11:08 | 40.12896 | 3.30953 | 14701 ft | 375 kts | 192° |
| 2026-04-26 11:08 | 40.10373 | 3.30157 | 14229 ft | 371 kts | 192° |
| 2026-04-26 11:08 | 40.07875 | 3.29367 | 13738 ft | 368 kts | 192° |
| 2026-04-26 11:09 | 40.05391 | 3.28584 | 13214 ft | 365 kts | 192° |
| 2026-04-26 11:09 | 40.02966 | 3.27823 | 12693 ft | 362 kts | 192° |
| 2026-04-26 11:09 | 40.00532 | 3.27063 | 12202 ft | 358 kts | 192° |
| 2026-04-26 11:09 | 39.98116 | 3.26314 | 11704 ft | 355 kts | 193° |
| 2026-04-26 11:10 | 39.95725 | 3.25587 | 11269 ft | 349 kts | 192° |
| 2026-04-26 11:10 | 39.93404 | 3.24889 | 11139 ft | 335 kts | 192° |
| 2026-04-26 11:10 | 39.91176 | 3.24221 | 11023 ft | 322 kts | 192° |
| 2026-04-26 11:10 | 39.89036 | 3.23564 | 10897 ft | 310 kts | 195° |
| 2026-04-26 11:11 | 39.87088 | 3.22477 | 10769 ft | 300 kts | 206° |
| 2026-04-26 11:11 | 39.85254 | 3.21236 | 10507 ft | 295 kts | 207° |
| 2026-04-26 11:11 | 39.83457 | 3.19964 | 10180 ft | 293 kts | 212° |
| 2026-04-26 11:11 | 39.81811 | 3.18420 | 9818 ft | 291 kts | 217° |
| 2026-04-26 11:12 | 39.80230 | 3.16845 | 9322 ft | 289 kts | 217° |
| 2026-04-26 11:12 | 39.78643 | 3.15250 | 8819 ft | 287 kts | 217° |
| 2026-04-26 11:12 | 39.77069 | 3.13659 | 8319 ft | 286 kts | 217° |
| 2026-04-26 11:12 | 39.75506 | 3.12069 | 7853 ft | 285 kts | 217° |
| 2026-04-26 11:13 | 39.73954 | 3.10477 | 7393 ft | 283 kts | 217° |
| 2026-04-26 11:13 | 39.72420 | 3.08896 | 6909 ft | 281 kts | 217° |
| 2026-04-26 11:13 | 39.70893 | 3.07321 | 6429 ft | 279 kts | 217° |
| 2026-04-26 11:13 | 39.69428 | 3.05673 | 5923 ft | 279 kts | 229° |
| 2026-04-26 11:14 | 39.68348 | 3.03593 | 5295 ft | 280 kts | 239° |
| 2026-04-26 11:14 | 39.67379 | 3.01371 | 4545 ft | 284 kts | 239° |
| 2026-04-26 11:14 | 39.66376 | 2.99184 | 4067 ft | 278 kts | 237° |
| 2026-04-26 11:14 | 39.65385 | 2.97080 | 3695 ft | 268 kts | 237° |
| 2026-04-26 11:15 | 39.64449 | 2.95088 | 3342 ft | 249 kts | 237° |
| 2026-04-26 11:15 | 39.63584 | 2.93246 | 3042 ft | 229 kts | 238° |
| 2026-04-26 11:15 | 39.62779 | 2.91533 | 2744 ft | 216 kts | 237° |
| 2026-04-26 11:15 | 39.62025 | 2.89929 | 2469 ft | 200 kts | 237° |
| 2026-04-26 11:16 | 39.61326 | 2.88443 | 2195 ft | 192 kts | 237° |
| 2026-04-26 11:16 | 39.60649 | 2.87005 | 1929 ft | 180 kts | 237° |
| 2026-04-26 11:16 | 39.60021 | 2.85670 | 1707 ft | 168 kts | 236° |
| 2026-04-26 11:16 | 39.59441 | 2.84439 | 1487 ft | 151 kts | 237° |
| 2026-04-26 11:17 | 39.58914 | 2.83320 | 1293 ft | 142 kts | 236° |
| 2026-04-26 11:17 | 39.58407 | 2.82244 | 1109 ft | 138 kts | 236° |
| 2026-04-26 11:17 | 39.57909 | 2.81189 | 937 ft | 137 kts | 235° |
| 2026-04-26 11:17 | 39.57420 | 2.80152 | 760 ft | 132 kts | 237° |
| 2026-04-26 11:18 | 39.56949 | 2.79153 | 582 ft | 129 kts | 237° |
| 2026-04-26 11:18 | 39.56486 | 2.78166 | 415 ft | 127 kts | 239° |
| 2026-04-26 11:18 | 39.56029 | 2.77180 | 253 ft | 126 kts | 238° |
| 2026-04-26 11:18 | 39.55574 | 2.76219 | 60 ft | 124 kts | 238° |
| 2026-04-26 11:19 | 39.55168 | 2.75361 | 29 ft | 97 kts | 238° |
| 2026-04-26 11:19 | 39.54891 | 2.74781 | 31 ft | 56 kts | 238° |
| 2026-04-26 11:19 | 39.54807 | 2.74449 | 34 ft | 33 kts | 263° |
| 2026-04-26 11:19 | 39.54801 | 2.74218 | 36 ft | 22 kts | 264° |
| 2026-04-26 11:20 | 39.54746 | 2.74042 | 36 ft | 21 kts | 239° |
| 2026-04-26 11:20 | 39.54698 | 2.73939 | 36 ft | 18 kts | 239° |
| 2026-04-26 11:20 | 39.54613 | 2.73756 | 36 ft | 18 kts | 239° |
| 2026-04-26 11:20 | 39.54600 | 2.73638 | 35 ft | 12 kts | 313° |
| 2026-04-26 11:21 | 39.54672 | 2.73607 | 35 ft | 11 kts | 334° |
| 2026-04-26 11:21 | 39.54737 | 2.73557 | 34 ft | 9 kts | 328° |
| 2026-04-26 11:21 | 39.54785 | 2.73581 | 35 ft | 7 kts | 54° |
| 2026-04-26 11:21 | 39.54799 | 2.73609 | 36 ft | 0 kts | 57° |